sensor_id;sensor_type;location;lat;lon;timestamp;P1;durP1;ratioP1;P2;durP2;ratioP2
80320;SDS011;69633;47.066;15.450;2024-01-27T00:01:48;0.63;;;0.40;;
80320;SDS011;69633;47.066;15.450;2024-01-27T00:04:14;0.73;;;0.52;;
80320;SDS011;69633;47.066;15.450;2024-01-27T00:06:39;2.33;;;0.80;;
80320;SDS011;69633;47.066;15.450;2024-01-27T00:09:05;2.22;;;0.60;;
80320;SDS011;69633;47.066;15.450;2024-01-27T00:11:31;1.75;;;0.70;;
80320;SDS011;69633;47.066;15.450;2024-01-27T00:13:57;1.30;;;0.50;;
80320;SDS011;69633;47.066;15.450;2024-01-27T00:16:24;0.85;;;0.40;;
80320;SDS011;69633;47.066;15.450;2024-01-27T00:18:49;4.88;;;0.80;;
80320;SDS011;69633;47.066;15.450;2024-01-27T00:21:15;5.63;;;0.63;;
80320;SDS011;69633;47.066;15.450;2024-01-27T00:23:40;1.65;;;0.60;;
80320;SDS011;69633;47.066;15.450;2024-01-27T00:26:07;2.75;;;0.70;;
80320;SDS011;69633;47.066;15.450;2024-01-27T00:28:33;0.47;;;0.45;;
80320;SDS011;69633;47.066;15.450;2024-01-27T00:30:59;4.60;;;0.77;;
80320;SDS011;69633;47.066;15.450;2024-01-27T00:33:25;1.70;;;0.80;;
80320;SDS011;69633;47.066;15.450;2024-01-27T00:35:51;0.50;;;0.50;;
80320;SDS011;69633;47.066;15.450;2024-01-27T00:38:16;1.48;;;0.82;;
80320;SDS011;69633;47.066;15.450;2024-01-27T00:40:42;0.70;;;0.50;;
80320;SDS011;69633;47.066;15.450;2024-01-27T00:43:08;0.98;;;0.60;;
80320;SDS011;69633;47.066;15.450;2024-01-27T00:45:35;0.40;;;0.40;;
80320;SDS011;69633;47.066;15.450;2024-01-27T00:48:00;0.82;;;0.57;;
80320;SDS011;69633;47.066;15.450;2024-01-27T00:50:27;4.28;;;0.50;;
80320;SDS011;69633;47.066;15.450;2024-01-27T00:52:54;1.83;;;0.70;;
80320;SDS011;69633;47.066;15.450;2024-01-27T00:55:19;1.73;;;0.60;;
80320;SDS011;69633;47.066;15.450;2024-01-27T00:57:46;2.38;;;0.63;;
80320;SDS011;69633;47.066;15.450;2024-01-27T01:00:12;1.10;;;0.60;;
80320;SDS011;69633;47.066;15.450;2024-01-27T01:02:38;1.48;;;0.60;;
80320;SDS011;69633;47.066;15.450;2024-01-27T01:05:04;1.88;;;0.68;;
80320;SDS011;69633;47.066;15.450;2024-01-27T01:07:30;0.85;;;0.60;;
80320;SDS011;69633;47.066;15.450;2024-01-27T01:09:56;0.40;;;0.32;;
80320;SDS011;69633;47.066;15.450;2024-01-27T01:12:21;1.23;;;0.65;;
80320;SDS011;69633;47.066;15.450;2024-01-27T01:14:47;0.80;;;0.40;;
80320;SDS011;69633;47.066;15.450;2024-01-27T01:17:13;1.25;;;0.77;;
80320;SDS011;69633;47.066;15.450;2024-01-27T01:19:40;0.75;;;0.70;;
80320;SDS011;69633;47.066;15.450;2024-01-27T01:22:09;1.25;;;0.50;;
80320;SDS011;69633;47.066;15.450;2024-01-27T01:24:34;0.63;;;0.40;;
80320;SDS011;69633;47.066;15.450;2024-01-27T01:27:01;0.57;;;0.40;;
80320;SDS011;69633;47.066;15.450;2024-01-27T01:29:27;1.02;;;0.32;;
80320;SDS011;69633;47.066;15.450;2024-01-27T01:31:53;0.93;;;0.40;;
80320;SDS011;69633;47.066;15.450;2024-01-27T01:34:19;1.85;;;0.68;;
80320;SDS011;69633;47.066;15.450;2024-01-27T01:36:44;1.60;;;0.60;;
80320;SDS011;69633;47.066;15.450;2024-01-27T01:39:11;0.90;;;0.52;;
80320;SDS011;69633;47.066;15.450;2024-01-27T01:41:40;0.70;;;0.40;;
80320;SDS011;69633;47.066;15.450;2024-01-27T01:44:07;0.63;;;0.50;;
80320;SDS011;69633;47.066;15.450;2024-01-27T01:46:33;0.22;;;0.22;;
80320;SDS011;69633;47.066;15.450;2024-01-27T01:48:59;1.08;;;0.60;;
80320;SDS011;69633;47.066;15.450;2024-01-27T01:51:25;2.67;;;0.57;;
80320;SDS011;69633;47.066;15.450;2024-01-27T01:53:52;1.00;;;0.63;;
80320;SDS011;69633;47.066;15.450;2024-01-27T01:56:22;0.52;;;0.50;;
80320;SDS011;69633;47.066;15.450;2024-01-27T01:58:48;1.05;;;0.40;;
80320;SDS011;69633;47.066;15.450;2024-01-27T02:01:13;2.50;;;1.08;;
80320;SDS011;69633;47.066;15.450;2024-01-27T02:03:39;0.80;;;0.60;;
80320;SDS011;69633;47.066;15.450;2024-01-27T02:06:05;1.38;;;0.60;;
80320;SDS011;69633;47.066;15.450;2024-01-27T02:08:31;0.82;;;0.60;;
80320;SDS011;69633;47.066;15.450;2024-01-27T02:10:56;0.38;;;0.30;;
80320;SDS011;69633;47.066;15.450;2024-01-27T02:13:23;0.50;;;0.50;;
80320;SDS011;69633;47.066;15.450;2024-01-27T02:15:50;0.43;;;0.40;;
80320;SDS011;69633;47.066;15.450;2024-01-27T02:18:16;0.45;;;0.45;;
80320;SDS011;69633;47.066;15.450;2024-01-27T02:20:43;1.25;;;0.50;;
80320;SDS011;69633;47.066;15.450;2024-01-27T02:23:09;1.23;;;0.50;;
80320;SDS011;69633;47.066;15.450;2024-01-27T02:25:38;1.85;;;0.60;;
80320;SDS011;69633;47.066;15.450;2024-01-27T02:28:05;1.33;;;0.52;;
80320;SDS011;69633;47.066;15.450;2024-01-27T02:30:32;0.77;;;0.60;;
80320;SDS011;69633;47.066;15.450;2024-01-27T02:32:58;0.50;;;0.40;;
80320;SDS011;69633;47.066;15.450;2024-01-27T02:35:25;2.65;;;0.60;;
80320;SDS011;69633;47.066;15.450;2024-01-27T02:37:51;0.45;;;0.40;;
80320;SDS011;69633;47.066;15.450;2024-01-27T02:40:16;0.77;;;0.50;;
80320;SDS011;69633;47.066;15.450;2024-01-27T02:42:42;2.00;;;0.50;;
80320;SDS011;69633;47.066;15.450;2024-01-27T02:45:10;1.27;;;0.50;;
80320;SDS011;69633;47.066;15.450;2024-01-27T02:47:36;2.92;;;0.50;;
80320;SDS011;69633;47.066;15.450;2024-01-27T02:50:03;0.50;;;0.50;;
80320;SDS011;69633;47.066;15.450;2024-01-27T02:52:29;0.43;;;0.40;;
80320;SDS011;69633;47.066;15.450;2024-01-27T02:54:55;1.95;;;0.63;;
80320;SDS011;69633;47.066;15.450;2024-01-27T02:57:20;1.13;;;0.65;;
80320;SDS011;69633;47.066;15.450;2024-01-27T02:59:46;0.73;;;0.60;;
80320;SDS011;69633;47.066;15.450;2024-01-27T03:02:12;0.52;;;0.40;;
80320;SDS011;69633;47.066;15.450;2024-01-27T03:04:39;0.68;;;0.60;;
80320;SDS011;69633;47.066;15.450;2024-01-27T03:07:05;2.35;;;0.57;;
80320;SDS011;69633;47.066;15.450;2024-01-27T03:09:32;0.57;;;0.50;;
80320;SDS011;69633;47.066;15.450;2024-01-27T03:11:57;2.35;;;0.68;;
80320;SDS011;69633;47.066;15.450;2024-01-27T03:14:23;0.50;;;0.30;;
80320;SDS011;69633;47.066;15.450;2024-01-27T03:16:50;1.25;;;0.80;;
80320;SDS011;69633;47.066;15.450;2024-01-27T03:19:17;0.98;;;0.50;;
80320;SDS011;69633;47.066;15.450;2024-01-27T03:21:42;0.82;;;0.40;;
80320;SDS011;69633;47.066;15.450;2024-01-27T03:24:08;0.63;;;0.60;;
80320;SDS011;69633;47.066;15.450;2024-01-27T03:26:34;3.58;;;0.82;;
80320;SDS011;69633;47.066;15.450;2024-01-27T03:29:01;1.85;;;0.60;;
80320;SDS011;69633;47.066;15.450;2024-01-27T03:31:31;0.47;;;0.40;;
80320;SDS011;69633;47.066;15.450;2024-01-27T03:33:59;2.10;;;0.73;;
80320;SDS011;69633;47.066;15.450;2024-01-27T03:36:26;0.85;;;0.60;;
80320;SDS011;69633;47.066;15.450;2024-01-27T03:38:52;0.43;;;0.40;;
80320;SDS011;69633;47.066;15.450;2024-01-27T03:41:17;1.58;;;0.40;;
80320;SDS011;69633;47.066;15.450;2024-01-27T03:43:43;0.57;;;0.45;;
80320;SDS011;69633;47.066;15.450;2024-01-27T03:46:08;1.42;;;0.55;;
80320;SDS011;69633;47.066;15.450;2024-01-27T03:48:34;2.03;;;0.82;;
80320;SDS011;69633;47.066;15.450;2024-01-27T03:51:00;0.73;;;0.47;;
80320;SDS011;69633;47.066;15.450;2024-01-27T03:53:26;2.53;;;0.85;;
80320;SDS011;69633;47.066;15.450;2024-01-27T03:55:52;2.85;;;0.73;;
80320;SDS011;69633;47.066;15.450;2024-01-27T03:58:18;0.50;;;0.50;;
80320;SDS011;69633;47.066;15.450;2024-01-27T04:00:44;3.90;;;0.70;;
80320;SDS011;69633;47.066;15.450;2024-01-27T04:03:09;0.93;;;0.50;;
80320;SDS011;69633;47.066;15.450;2024-01-27T04:05:35;1.35;;;0.68;;
80320;SDS011;69633;47.066;15.450;2024-01-27T04:08:00;0.98;;;0.50;;
80320;SDS011;69633;47.066;15.450;2024-01-27T04:10:26;0.60;;;0.60;;
80320;SDS011;69633;47.066;15.450;2024-01-27T04:12:51;1.58;;;0.80;;
80320;SDS011;69633;47.066;15.450;2024-01-27T04:15:16;1.75;;;0.70;;
80320;SDS011;69633;47.066;15.450;2024-01-27T04:17:43;0.93;;;0.30;;
80320;SDS011;69633;47.066;15.450;2024-01-27T04:20:09;0.55;;;0.50;;
80320;SDS011;69633;47.066;15.450;2024-01-27T04:22:36;4.63;;;1.05;;
80320;SDS011;69633;47.066;15.450;2024-01-27T04:25:02;0.95;;;0.52;;
80320;SDS011;69633;47.066;15.450;2024-01-27T04:27:30;3.08;;;0.80;;
80320;SDS011;69633;47.066;15.450;2024-01-27T04:29:57;2.72;;;0.63;;
80320;SDS011;69633;47.066;15.450;2024-01-27T04:32:23;1.25;;;0.77;;
80320;SDS011;69633;47.066;15.450;2024-01-27T04:34:48;1.02;;;0.60;;
80320;SDS011;69633;47.066;15.450;2024-01-27T04:37:14;1.42;;;0.60;;
80320;SDS011;69633;47.066;15.450;2024-01-27T04:39:39;1.48;;;0.60;;
80320;SDS011;69633;47.066;15.450;2024-01-27T04:42:06;5.50;;;0.75;;
80320;SDS011;69633;47.066;15.450;2024-01-27T04:44:32;0.63;;;0.50;;
80320;SDS011;69633;47.066;15.450;2024-01-27T04:46:58;0.85;;;0.70;;
80320;SDS011;69633;47.066;15.450;2024-01-27T04:49:23;1.10;;;0.52;;
80320;SDS011;69633;47.066;15.450;2024-01-27T04:51:49;1.08;;;0.47;;
80320;SDS011;69633;47.066;15.450;2024-01-27T04:54:15;2.58;;;0.55;;
80320;SDS011;69633;47.066;15.450;2024-01-27T04:56:42;1.48;;;0.77;;
80320;SDS011;69633;47.066;15.450;2024-01-27T04:59:08;1.52;;;0.70;;
80320;SDS011;69633;47.066;15.450;2024-01-27T05:01:34;2.55;;;0.63;;
80320;SDS011;69633;47.066;15.450;2024-01-27T05:03:59;3.03;;;0.93;;
80320;SDS011;69633;47.066;15.450;2024-01-27T05:06:25;2.63;;;1.10;;
80320;SDS011;69633;47.066;15.450;2024-01-27T05:08:50;2.97;;;0.60;;
80320;SDS011;69633;47.066;15.450;2024-01-27T05:11:16;0.47;;;0.47;;
80320;SDS011;69633;47.066;15.450;2024-01-27T05:13:50;2.47;;;0.70;;
80320;SDS011;69633;47.066;15.450;2024-01-27T05:16:16;0.52;;;0.50;;
80320;SDS011;69633;47.066;15.450;2024-01-27T05:18:43;1.63;;;0.73;;
80320;SDS011;69633;47.066;15.450;2024-01-27T05:21:10;2.70;;;0.50;;
80320;SDS011;69633;47.066;15.450;2024-01-27T05:23:35;0.80;;;0.65;;
80320;SDS011;69633;47.066;15.450;2024-01-27T05:26:00;0.73;;;0.50;;
80320;SDS011;69633;47.066;15.450;2024-01-27T05:28:26;0.80;;;0.63;;
80320;SDS011;69633;47.066;15.450;2024-01-27T05:30:51;1.88;;;1.02;;
80320;SDS011;69633;47.066;15.450;2024-01-27T05:33:18;0.65;;;0.50;;
80320;SDS011;69633;47.066;15.450;2024-01-27T05:35:44;0.68;;;0.52;;
80320;SDS011;69633;47.066;15.450;2024-01-27T05:38:09;1.15;;;0.73;;
80320;SDS011;69633;47.066;15.450;2024-01-27T05:40:36;1.35;;;0.45;;
80320;SDS011;69633;47.066;15.450;2024-01-27T05:43:01;0.38;;;0.38;;
80320;SDS011;69633;47.066;15.450;2024-01-27T05:45:27;1.23;;;0.85;;
80320;SDS011;69633;47.066;15.450;2024-01-27T05:47:54;2.17;;;0.80;;
80320;SDS011;69633;47.066;15.450;2024-01-27T05:50:19;1.20;;;0.80;;
80320;SDS011;69633;47.066;15.450;2024-01-27T05:52:44;1.25;;;0.60;;
80320;SDS011;69633;47.066;15.450;2024-01-27T05:55:10;3.50;;;0.60;;
80320;SDS011;69633;47.066;15.450;2024-01-27T05:57:39;0.60;;;0.52;;
80320;SDS011;69633;47.066;15.450;2024-01-27T06:00:05;1.70;;;0.70;;
80320;SDS011;69633;47.066;15.450;2024-01-27T06:02:33;1.52;;;0.63;;
80320;SDS011;69633;47.066;15.450;2024-01-27T06:04:59;1.65;;;1.05;;
80320;SDS011;69633;47.066;15.450;2024-01-27T06:07:24;3.38;;;0.77;;
80320;SDS011;69633;47.066;15.450;2024-01-27T06:09:50;1.75;;;0.70;;
80320;SDS011;69633;47.066;15.450;2024-01-27T06:12:17;3.17;;;0.60;;
80320;SDS011;69633;47.066;15.450;2024-01-27T06:14:44;2.90;;;0.98;;
80320;SDS011;69633;47.066;15.450;2024-01-27T06:17:10;0.98;;;0.60;;
80320;SDS011;69633;47.066;15.450;2024-01-27T06:19:37;3.15;;;1.20;;
80320;SDS011;69633;47.066;15.450;2024-01-27T06:22:02;1.98;;;1.20;;
80320;SDS011;69633;47.066;15.450;2024-01-27T06:24:28;2.75;;;1.05;;
80320;SDS011;69633;47.066;15.450;2024-01-27T06:26:53;7.38;;;1.95;;
80320;SDS011;69633;47.066;15.450;2024-01-27T06:29:19;3.08;;;1.20;;
80320;SDS011;69633;47.066;15.450;2024-01-27T06:31:44;3.78;;;1.10;;
80320;SDS011;69633;47.066;15.450;2024-01-27T06:34:10;3.22;;;1.20;;
80320;SDS011;69633;47.066;15.450;2024-01-27T06:36:35;5.60;;;1.83;;
80320;SDS011;69633;47.066;15.450;2024-01-27T06:39:02;5.40;;;1.80;;
80320;SDS011;69633;47.066;15.450;2024-01-27T06:41:29;7.32;;;1.90;;
80320;SDS011;69633;47.066;15.450;2024-01-27T06:43:54;5.20;;;2.28;;
80320;SDS011;69633;47.066;15.450;2024-01-27T06:46:21;6.95;;;1.50;;
80320;SDS011;69633;47.066;15.450;2024-01-27T06:48:46;5.60;;;2.00;;
80320;SDS011;69633;47.066;15.450;2024-01-27T06:51:12;4.85;;;1.77;;
80320;SDS011;69633;47.066;15.450;2024-01-27T06:53:37;5.10;;;1.67;;
80320;SDS011;69633;47.066;15.450;2024-01-27T06:56:09;3.97;;;1.27;;
80320;SDS011;69633;47.066;15.450;2024-01-27T06:58:34;4.53;;;1.67;;
80320;SDS011;69633;47.066;15.450;2024-01-27T07:01:02;6.68;;;1.52;;
80320;SDS011;69633;47.066;15.450;2024-01-27T07:03:27;7.65;;;2.30;;
80320;SDS011;69633;47.066;15.450;2024-01-27T07:05:53;6.03;;;1.98;;
80320;SDS011;69633;47.066;15.450;2024-01-27T07:08:19;4.63;;;1.30;;
80320;SDS011;69633;47.066;15.450;2024-01-27T07:10:44;7.78;;;2.20;;
80320;SDS011;69633;47.066;15.450;2024-01-27T07:13:12;6.38;;;1.63;;
80320;SDS011;69633;47.066;15.450;2024-01-27T07:15:38;3.30;;;1.40;;
80320;SDS011;69633;47.066;15.450;2024-01-27T07:18:05;4.30;;;1.38;;
80320;SDS011;69633;47.066;15.450;2024-01-27T07:20:33;5.70;;;1.80;;
80320;SDS011;69633;47.066;15.450;2024-01-27T07:22:58;4.90;;;1.13;;
80320;SDS011;69633;47.066;15.450;2024-01-27T07:25:23;3.33;;;0.70;;
80320;SDS011;69633;47.066;15.450;2024-01-27T07:27:51;6.03;;;1.15;;
80320;SDS011;69633;47.066;15.450;2024-01-27T07:30:16;2.25;;;0.90;;
80320;SDS011;69633;47.066;15.450;2024-01-27T07:32:42;1.88;;;1.00;;
80320;SDS011;69633;47.066;15.450;2024-01-27T07:35:09;5.38;;;1.30;;
80320;SDS011;69633;47.066;15.450;2024-01-27T07:37:34;1.95;;;1.17;;
80320;SDS011;69633;47.066;15.450;2024-01-27T07:40:00;3.85;;;1.20;;
80320;SDS011;69633;47.066;15.450;2024-01-27T07:42:25;2.15;;;1.23;;
80320;SDS011;69633;47.066;15.450;2024-01-27T07:44:51;2.38;;;0.80;;
80320;SDS011;69633;47.066;15.450;2024-01-27T07:47:16;4.60;;;1.52;;
80320;SDS011;69633;47.066;15.450;2024-01-27T07:49:42;2.88;;;1.10;;
80320;SDS011;69633;47.066;15.450;2024-01-27T07:52:08;2.17;;;1.10;;
80320;SDS011;69633;47.066;15.450;2024-01-27T07:54:35;5.57;;;1.20;;
80320;SDS011;69633;47.066;15.450;2024-01-27T07:57:04;1.67;;;1.00;;
80320;SDS011;69633;47.066;15.450;2024-01-27T07:59:31;2.65;;;1.15;;
80320;SDS011;69633;47.066;15.450;2024-01-27T08:01:57;2.45;;;1.00;;
80320;SDS011;69633;47.066;15.450;2024-01-27T08:04:25;2.28;;;0.90;;
80320;SDS011;69633;47.066;15.450;2024-01-27T08:06:51;1.05;;;0.63;;
80320;SDS011;69633;47.066;15.450;2024-01-27T08:09:21;2.72;;;0.85;;
80320;SDS011;69633;47.066;15.450;2024-01-27T08:11:46;2.83;;;0.98;;
80320;SDS011;69633;47.066;15.450;2024-01-27T08:16:42;4.78;;;1.08;;
80320;SDS011;69633;47.066;15.450;2024-01-27T08:19:09;1.05;;;0.63;;
80320;SDS011;69633;47.066;15.450;2024-01-27T08:21:34;1.63;;;0.70;;
80320;SDS011;69633;47.066;15.450;2024-01-27T08:24:00;1.85;;;0.90;;
80320;SDS011;69633;47.066;15.450;2024-01-27T08:26:25;2.08;;;0.90;;
80320;SDS011;69633;47.066;15.450;2024-01-27T08:28:51;2.03;;;0.85;;
80320;SDS011;69633;47.066;15.450;2024-01-27T08:31:18;3.42;;;1.20;;
80320;SDS011;69633;47.066;15.450;2024-01-27T08:33:43;2.53;;;0.80;;
80320;SDS011;69633;47.066;15.450;2024-01-27T08:36:13;2.90;;;1.05;;
80320;SDS011;69633;47.066;15.450;2024-01-27T08:38:39;1.95;;;0.73;;
80320;SDS011;69633;47.066;15.450;2024-01-27T08:41:05;1.60;;;0.32;;
80320;SDS011;69633;47.066;15.450;2024-01-27T08:43:33;5.07;;;1.00;;
80320;SDS011;69633;47.066;15.450;2024-01-27T08:45:58;3.33;;;0.93;;
80320;SDS011;69633;47.066;15.450;2024-01-27T08:48:25;2.42;;;1.10;;
80320;SDS011;69633;47.066;15.450;2024-01-27T08:50:51;5.32;;;1.25;;
80320;SDS011;69633;47.066;15.450;2024-01-27T08:53:16;4.68;;;1.70;;
80320;SDS011;69633;47.066;15.450;2024-01-27T08:55:42;5.32;;;1.98;;
80320;SDS011;69633;47.066;15.450;2024-01-27T08:58:07;2.08;;;1.10;;
80320;SDS011;69633;47.066;15.450;2024-01-27T09:00:33;4.00;;;1.20;;
80320;SDS011;69633;47.066;15.450;2024-01-27T09:02:58;3.05;;;1.00;;
80320;SDS011;69633;47.066;15.450;2024-01-27T09:05:24;6.88;;;2.08;;
80320;SDS011;69633;47.066;15.450;2024-01-27T09:07:50;2.47;;;1.10;;
80320;SDS011;69633;47.066;15.450;2024-01-27T09:10:15;4.30;;;1.20;;
80320;SDS011;69633;47.066;15.450;2024-01-27T09:12:43;2.67;;;1.23;;
80320;SDS011;69633;47.066;15.450;2024-01-27T09:15:10;7.93;;;2.70;;
80320;SDS011;69633;47.066;15.450;2024-01-27T09:17:37;4.72;;;1.75;;
80320;SDS011;69633;47.066;15.450;2024-01-27T09:20:08;5.00;;;1.17;;
80320;SDS011;69633;47.066;15.450;2024-01-27T09:22:35;6.80;;;1.30;;
80320;SDS011;69633;47.066;15.450;2024-01-27T09:25:02;3.00;;;1.33;;
80320;SDS011;69633;47.066;15.450;2024-01-27T09:27:27;2.75;;;0.90;;
80320;SDS011;69633;47.066;15.450;2024-01-27T09:29:53;1.98;;;1.00;;
80320;SDS011;69633;47.066;15.450;2024-01-27T09:32:18;4.40;;;1.00;;
80320;SDS011;69633;47.066;15.450;2024-01-27T09:34:44;4.07;;;1.05;;
80320;SDS011;69633;47.066;15.450;2024-01-27T09:37:10;5.25;;;1.13;;
80320;SDS011;69633;47.066;15.450;2024-01-27T09:39:36;3.92;;;1.20;;
80320;SDS011;69633;47.066;15.450;2024-01-27T09:42:04;2.40;;;0.90;;
80320;SDS011;69633;47.066;15.450;2024-01-27T09:44:34;5.05;;;1.15;;
80320;SDS011;69633;47.066;15.450;2024-01-27T09:47:00;2.28;;;0.90;;
80320;SDS011;69633;47.066;15.450;2024-01-27T09:49:26;1.48;;;0.80;;
80320;SDS011;69633;47.066;15.450;2024-01-27T09:51:52;2.10;;;0.82;;
80320;SDS011;69633;47.066;15.450;2024-01-27T09:54:18;4.18;;;1.00;;
80320;SDS011;69633;47.066;15.450;2024-01-27T09:56:45;3.80;;;1.05;;
80320;SDS011;69633;47.066;15.450;2024-01-27T09:59:11;1.48;;;0.70;;
80320;SDS011;69633;47.066;15.450;2024-01-27T10:01:39;5.78;;;0.85;;
80320;SDS011;69633;47.066;15.450;2024-01-27T10:04:07;1.17;;;0.70;;
80320;SDS011;69633;47.066;15.450;2024-01-27T10:06:34;3.00;;;0.90;;
80320;SDS011;69633;47.066;15.450;2024-01-27T10:09:01;2.70;;;1.20;;
80320;SDS011;69633;47.066;15.450;2024-01-27T10:11:26;4.88;;;1.40;;
80320;SDS011;69633;47.066;15.450;2024-01-27T10:13:54;2.60;;;0.75;;
80320;SDS011;69633;47.066;15.450;2024-01-27T10:16:22;4.15;;;0.77;;
80320;SDS011;69633;47.066;15.450;2024-01-27T10:18:58;2.22;;;0.80;;
80320;SDS011;69633;47.066;15.450;2024-01-27T10:21:25;2.88;;;0.70;;
80320;SDS011;69633;47.066;15.450;2024-01-27T10:23:53;1.85;;;0.70;;
80320;SDS011;69633;47.066;15.450;2024-01-27T10:26:18;1.65;;;0.70;;
80320;SDS011;69633;47.066;15.450;2024-01-27T10:28:56;1.13;;;0.80;;
80320;SDS011;69633;47.066;15.450;2024-01-27T10:31:25;0.73;;;0.63;;
80320;SDS011;69633;47.066;15.450;2024-01-27T10:33:52;2.17;;;0.80;;
80320;SDS011;69633;47.066;15.450;2024-01-27T10:36:20;1.42;;;0.57;;
80320;SDS011;69633;47.066;15.450;2024-01-27T10:38:45;1.60;;;0.90;;
80320;SDS011;69633;47.066;15.450;2024-01-27T10:41:11;1.10;;;0.70;;
80320;SDS011;69633;47.066;15.450;2024-01-27T10:43:40;1.17;;;0.70;;
80320;SDS011;69633;47.066;15.450;2024-01-27T10:46:07;2.45;;;0.88;;
80320;SDS011;69633;47.066;15.450;2024-01-27T10:48:37;1.35;;;0.70;;
80320;SDS011;69633;47.066;15.450;2024-01-27T10:51:09;2.50;;;0.77;;
80320;SDS011;69633;47.066;15.450;2024-01-27T10:53:36;3.17;;;1.08;;
80320;SDS011;69633;47.066;15.450;2024-01-27T10:56:04;1.17;;;0.90;;
80320;SDS011;69633;47.066;15.450;2024-01-27T10:58:35;2.65;;;0.80;;
80320;SDS011;69633;47.066;15.450;2024-01-27T11:01:07;1.40;;;0.68;;
80320;SDS011;69633;47.066;15.450;2024-01-27T11:03:36;1.33;;;0.85;;
80320;SDS011;69633;47.066;15.450;2024-01-27T11:06:04;1.65;;;0.88;;
80320;SDS011;69633;47.066;15.450;2024-01-27T11:08:34;0.75;;;0.60;;
80320;SDS011;69633;47.066;15.450;2024-01-27T11:11:03;0.80;;;0.60;;
80320;SDS011;69633;47.066;15.450;2024-01-27T11:13:29;1.33;;;0.60;;
80320;SDS011;69633;47.066;15.450;2024-01-27T11:15:58;0.85;;;0.85;;
80320;SDS011;69633;47.066;15.450;2024-01-27T11:18:26;1.48;;;0.68;;
80320;SDS011;69633;47.066;15.450;2024-01-27T11:20:55;1.05;;;0.75;;
80320;SDS011;69633;47.066;15.450;2024-01-27T11:23:31;2.15;;;0.70;;
80320;SDS011;69633;47.066;15.450;2024-01-27T11:26:04;0.60;;;0.50;;
80320;SDS011;69633;47.066;15.450;2024-01-27T11:28:31;0.68;;;0.47;;
80320;SDS011;69633;47.066;15.450;2024-01-27T11:30:56;1.90;;;0.90;;
80320;SDS011;69633;47.066;15.450;2024-01-27T11:33:24;4.30;;;0.60;;
80320;SDS011;69633;47.066;15.450;2024-01-27T11:36:01;0.50;;;0.50;;
80320;SDS011;69633;47.066;15.450;2024-01-27T11:38:27;1.48;;;0.80;;
80320;SDS011;69633;47.066;15.450;2024-01-27T11:40:53;2.78;;;0.70;;
80320;SDS011;69633;47.066;15.450;2024-01-27T11:43:20;1.38;;;0.47;;
80320;SDS011;69633;47.066;15.450;2024-01-27T11:45:58;2.60;;;0.85;;
80320;SDS011;69633;47.066;15.450;2024-01-27T11:48:26;0.98;;;0.60;;
80320;SDS011;69633;47.066;15.450;2024-01-27T11:51:05;1.52;;;0.55;;
80320;SDS011;69633;47.066;15.450;2024-01-27T11:53:31;0.63;;;0.43;;
80320;SDS011;69633;47.066;15.450;2024-01-27T11:55:56;2.55;;;0.50;;
80320;SDS011;69633;47.066;15.450;2024-01-27T11:58:24;1.13;;;0.30;;
80320;SDS011;69633;47.066;15.450;2024-01-27T12:00:49;2.95;;;0.50;;
80320;SDS011;69633;47.066;15.450;2024-01-27T12:03:15;1.50;;;0.65;;
80320;SDS011;69633;47.066;15.450;2024-01-27T12:05:40;1.25;;;0.50;;
80320;SDS011;69633;47.066;15.450;2024-01-27T12:08:07;2.22;;;0.40;;
80320;SDS011;69633;47.066;15.450;2024-01-27T12:10:33;2.25;;;0.70;;
80320;SDS011;69633;47.066;15.450;2024-01-27T12:13:01;0.93;;;0.50;;
80320;SDS011;69633;47.066;15.450;2024-01-27T12:15:27;0.73;;;0.60;;
80320;SDS011;69633;47.066;15.450;2024-01-27T12:17:53;3.50;;;0.90;;
80320;SDS011;69633;47.066;15.450;2024-01-27T12:20:21;2.55;;;0.60;;
80320;SDS011;69633;47.066;15.450;2024-01-27T12:22:47;0.47;;;0.40;;
80320;SDS011;69633;47.066;15.450;2024-01-27T12:25:16;1.15;;;0.63;;
80320;SDS011;69633;47.066;15.450;2024-01-27T12:27:46;2.03;;;0.50;;
80320;SDS011;69633;47.066;15.450;2024-01-27T12:30:11;0.75;;;0.40;;
80320;SDS011;69633;47.066;15.450;2024-01-27T12:32:39;1.02;;;0.73;;
80320;SDS011;69633;47.066;15.450;2024-01-27T12:35:06;2.03;;;0.43;;
80320;SDS011;69633;47.066;15.450;2024-01-27T12:37:33;1.30;;;0.60;;
80320;SDS011;69633;47.066;15.450;2024-01-27T12:40:00;1.10;;;0.60;;
80320;SDS011;69633;47.066;15.450;2024-01-27T12:42:25;0.40;;;0.40;;
80320;SDS011;69633;47.066;15.450;2024-01-27T12:44:50;1.08;;;0.30;;
80320;SDS011;69633;47.066;15.450;2024-01-27T12:47:17;0.85;;;0.50;;
80320;SDS011;69633;47.066;15.450;2024-01-27T12:49:44;0.93;;;0.70;;
80320;SDS011;69633;47.066;15.450;2024-01-27T12:52:10;0.70;;;0.60;;
80320;SDS011;69633;47.066;15.450;2024-01-27T12:54:36;1.05;;;0.52;;
80320;SDS011;69633;47.066;15.450;2024-01-27T12:57:01;0.73;;;0.60;;
80320;SDS011;69633;47.066;15.450;2024-01-27T12:59:27;0.60;;;0.50;;
80320;SDS011;69633;47.066;15.450;2024-01-27T13:01:53;1.45;;;0.57;;
80320;SDS011;69633;47.066;15.450;2024-01-27T13:04:19;0.68;;;0.60;;
80320;SDS011;69633;47.066;15.450;2024-01-27T13:06:44;0.63;;;0.55;;
80320;SDS011;69633;47.066;15.450;2024-01-27T13:09:10;0.90;;;0.40;;
80320;SDS011;69633;47.066;15.450;2024-01-27T13:11:39;1.33;;;0.60;;
80320;SDS011;69633;47.066;15.450;2024-01-27T13:14:04;1.75;;;0.40;;
80320;SDS011;69633;47.066;15.450;2024-01-27T13:16:30;0.20;;;0.20;;
80320;SDS011;69633;47.066;15.450;2024-01-27T13:18:56;0.98;;;0.50;;
80320;SDS011;69633;47.066;15.450;2024-01-27T13:21:21;2.17;;;0.40;;
80320;SDS011;69633;47.066;15.450;2024-01-27T13:23:47;0.43;;;0.30;;
80320;SDS011;69633;47.066;15.450;2024-01-27T13:26:12;0.68;;;0.40;;
80320;SDS011;69633;47.066;15.450;2024-01-27T13:28:38;0.50;;;0.50;;
80320;SDS011;69633;47.066;15.450;2024-01-27T13:31:03;0.88;;;0.60;;
80320;SDS011;69633;47.066;15.450;2024-01-27T13:33:31;0.68;;;0.40;;
80320;SDS011;69633;47.066;15.450;2024-01-27T13:35:57;1.10;;;0.63;;
80320;SDS011;69633;47.066;15.450;2024-01-27T13:38:23;0.38;;;0.35;;
80320;SDS011;69633;47.066;15.450;2024-01-27T13:40:49;0.77;;;0.50;;
80320;SDS011;69633;47.066;15.450;2024-01-27T13:43:15;0.77;;;0.57;;
80320;SDS011;69633;47.066;15.450;2024-01-27T13:45:45;0.80;;;0.50;;
80320;SDS011;69633;47.066;15.450;2024-01-27T13:48:12;1.23;;;0.60;;
80320;SDS011;69633;47.066;15.450;2024-01-27T13:50:37;9.93;;;2.92;;
80320;SDS011;69633;47.066;15.450;2024-01-27T13:53:03;9.90;;;3.40;;
80320;SDS011;69633;47.066;15.450;2024-01-27T13:55:30;4.43;;;1.90;;
80320;SDS011;69633;47.066;15.450;2024-01-27T13:57:56;1.13;;;0.60;;
80320;SDS011;69633;47.066;15.450;2024-01-27T14:00:21;1.63;;;0.70;;
80320;SDS011;69633;47.066;15.450;2024-01-27T14:02:47;1.27;;;0.55;;
80320;SDS011;69633;47.066;15.450;2024-01-27T14:05:12;0.90;;;0.68;;
80320;SDS011;69633;47.066;15.450;2024-01-27T14:07:38;1.92;;;0.68;;
80320;SDS011;69633;47.066;15.450;2024-01-27T14:10:03;1.42;;;0.70;;
80320;SDS011;69633;47.066;15.450;2024-01-27T14:12:30;0.52;;;0.50;;
80320;SDS011;69633;47.066;15.450;2024-01-27T14:15:06;0.70;;;0.70;;
80320;SDS011;69633;47.066;15.450;2024-01-27T14:17:33;1.38;;;0.60;;
80320;SDS011;69633;47.066;15.450;2024-01-27T14:20:00;0.38;;;0.38;;
80320;SDS011;69633;47.066;15.450;2024-01-27T14:22:28;1.20;;;0.43;;
80320;SDS011;69633;47.066;15.450;2024-01-27T14:24:55;1.45;;;0.32;;
80320;SDS011;69633;47.066;15.450;2024-01-27T14:27:21;7.40;;;0.90;;
80320;SDS011;69633;47.066;15.450;2024-01-27T14:29:54;1.40;;;0.50;;
80320;SDS011;69633;47.066;15.450;2024-01-27T14:32:20;1.60;;;0.70;;